sensor_id;sensor_type;location;lat;lon;timestamp;P1;durP1;ratioP1;P2;durP2;ratioP2
2011;SDS011;1009;51.436;6.972;2023-02-01T00:00:29;23.30;;;9.53;;
2011;SDS011;1009;51.436;6.972;2023-02-01T00:03:01;20.00;;;8.43;;
2011;SDS011;1009;51.436;6.972;2023-02-01T00:05:39;22.53;;;9.30;;
2011;SDS011;1009;51.436;6.972;2023-02-01T00:08:05;23.73;;;9.53;;
2011;SDS011;1009;51.436;6.972;2023-02-01T00:10:32;20.27;;;7.40;;
2011;SDS011;1009;51.436;6.972;2023-02-01T00:12:59;19.70;;;7.90;;
2011;SDS011;1009;51.436;6.972;2023-02-01T00:15:27;23.57;;;8.53;;
2011;SDS011;1009;51.436;6.972;2023-02-01T00:17:54;17.50;;;7.83;;
2011;SDS011;1009;51.436;6.972;2023-02-01T00:20:21;20.80;;;7.40;;
2011;SDS011;1009;51.436;6.972;2023-02-01T00:22:47;21.23;;;9.20;;
2011;SDS011;1009;51.436;6.972;2023-02-01T00:25:14;22.90;;;7.00;;
2011;SDS011;1009;51.436;6.972;2023-02-01T00:27:41;18.53;;;7.30;;
2011;SDS011;1009;51.436;6.972;2023-02-01T00:30:08;17.33;;;7.67;;
2011;SDS011;1009;51.436;6.972;2023-02-01T00:32:37;19.70;;;7.63;;
2011;SDS011;1009;51.436;6.972;2023-02-01T00:35:04;16.67;;;7.23;;
2011;SDS011;1009;51.436;6.972;2023-02-01T00:37:33;17.40;;;6.80;;
2011;SDS011;1009;51.436;6.972;2023-02-01T00:39:59;13.57;;;6.00;;
2011;SDS011;1009;51.436;6.972;2023-02-01T00:42:26;15.73;;;6.83;;
2011;SDS011;1009;51.436;6.972;2023-02-01T00:44:53;15.50;;;6.33;;
2011;SDS011;1009;51.436;6.972;2023-02-01T00:47:19;17.07;;;6.23;;
2011;SDS011;1009;51.436;6.972;2023-02-01T00:49:47;14.87;;;6.10;;
2011;SDS011;1009;51.436;6.972;2023-02-01T00:52:14;17.60;;;6.20;;
2011;SDS011;1009;51.436;6.972;2023-02-01T00:54:41;17.47;;;6.83;;
2011;SDS011;1009;51.436;6.972;2023-02-01T00:57:07;19.80;;;6.77;;
2011;SDS011;1009;51.436;6.972;2023-02-01T00:59:34;11.30;;;7.00;;
2011;SDS011;1009;51.436;6.972;2023-02-01T01:02:01;18.80;;;8.20;;
2011;SDS011;1009;51.436;6.972;2023-02-01T01:04:27;14.00;;;7.60;;
2011;SDS011;1009;51.436;6.972;2023-02-01T01:06:56;16.87;;;8.80;;
2011;SDS011;1009;51.436;6.972;2023-02-01T01:09:22;20.40;;;8.10;;
2011;SDS011;1009;51.436;6.972;2023-02-01T01:11:49;20.00;;;8.73;;
2011;SDS011;1009;51.436;6.972;2023-02-01T01:14:17;21.23;;;9.27;;
2011;SDS011;1009;51.436;6.972;2023-02-01T01:16:44;21.00;;;10.23;;
2011;SDS011;1009;51.436;6.972;2023-02-01T01:19:11;23.63;;;9.40;;
2011;SDS011;1009;51.436;6.972;2023-02-01T01:21:37;20.63;;;9.40;;
2011;SDS011;1009;51.436;6.972;2023-02-01T01:24:06;22.73;;;10.00;;
2011;SDS011;1009;51.436;6.972;2023-02-01T01:26:32;18.93;;;9.27;;
2011;SDS011;1009;51.436;6.972;2023-02-01T01:28:59;20.10;;;9.30;;
2011;SDS011;1009;51.436;6.972;2023-02-01T01:31:27;17.37;;;10.00;;
2011;SDS011;1009;51.436;6.972;2023-02-01T01:33:55;21.53;;;10.03;;
2011;SDS011;1009;51.436;6.972;2023-02-01T01:36:23;26.93;;;9.67;;
2011;SDS011;1009;51.436;6.972;2023-02-01T01:38:51;17.13;;;8.97;;
2011;SDS011;1009;51.436;6.972;2023-02-01T01:41:20;22.13;;;9.10;;
2011;SDS011;1009;51.436;6.972;2023-02-01T01:43:52;25.87;;;10.80;;
2011;SDS011;1009;51.436;6.972;2023-02-01T01:46:21;25.23;;;8.40;;
2011;SDS011;1009;51.436;6.972;2023-02-01T01:48:50;19.07;;;9.53;;
2011;SDS011;1009;51.436;6.972;2023-02-01T01:51:20;18.00;;;8.93;;
2011;SDS011;1009;51.436;6.972;2023-02-01T01:53:50;24.97;;;9.50;;
2011;SDS011;1009;51.436;6.972;2023-02-01T01:56:24;21.30;;;9.50;;
2011;SDS011;1009;51.436;6.972;2023-02-01T01:58:56;20.00;;;8.60;;
2011;SDS011;1009;51.436;6.972;2023-02-01T02:01:23;22.27;;;8.20;;
2011;SDS011;1009;51.436;6.972;2023-02-01T02:03:50;21.47;;;7.73;;
2011;SDS011;1009;51.436;6.972;2023-02-01T02:06:20;15.23;;;6.40;;
2011;SDS011;1009;51.436;6.972;2023-02-01T02:08:56;19.73;;;7.07;;
2011;SDS011;1009;51.436;6.972;2023-02-01T02:11:33;21.47;;;6.97;;
2011;SDS011;1009;51.436;6.972;2023-02-01T02:14:00;17.20;;;7.83;;
2011;SDS011;1009;51.436;6.972;2023-02-01T02:16:32;26.80;;;8.37;;
2011;SDS011;1009;51.436;6.972;2023-02-01T02:19:24;18.53;;;7.57;;
2011;SDS011;1009;51.436;6.972;2023-02-01T02:22:29;19.57;;;7.83;;
2011;SDS011;1009;51.436;6.972;2023-02-01T02:28:15;14.47;;;5.97;;
2011;SDS011;1009;51.436;6.972;2023-02-01T02:31:23;24.90;;;6.37;;
2011;SDS011;1009;51.436;6.972;2023-02-01T02:34:07;13.20;;;6.07;;
2011;SDS011;1009;51.436;6.972;2023-02-01T02:36:43;17.50;;;6.03;;
2011;SDS011;1009;51.436;6.972;2023-02-01T02:39:20;14.13;;;5.37;;
2011;SDS011;1009;51.436;6.972;2023-02-01T02:41:54;16.50;;;5.43;;
2011;SDS011;1009;51.436;6.972;2023-02-01T02:44:46;14.87;;;5.50;;
2011;SDS011;1009;51.436;6.972;2023-02-01T02:47:35;17.70;;;7.03;;
2011;SDS011;1009;51.436;6.972;2023-02-01T02:50:14;11.97;;;5.17;;
2011;SDS011;1009;51.436;6.972;2023-02-01T02:53:04;22.60;;;5.53;;
2011;SDS011;1009;51.436;6.972;2023-02-01T02:55:54;19.60;;;5.07;;
2011;SDS011;1009;51.436;6.972;2023-02-01T02:58:40;18.80;;;6.40;;
2011;SDS011;1009;51.436;6.972;2023-02-01T03:01:26;9.00;;;4.80;;
2011;SDS011;1009;51.436;6.972;2023-02-01T03:04:11;13.93;;;4.73;;
2011;SDS011;1009;51.436;6.972;2023-02-01T03:06:43;17.83;;;4.83;;
2011;SDS011;1009;51.436;6.972;2023-02-01T03:09:13;15.80;;;5.83;;
2011;SDS011;1009;51.436;6.972;2023-02-01T03:11:45;19.53;;;5.80;;
2011;SDS011;1009;51.436;6.972;2023-02-01T03:14:32;18.00;;;5.27;;
2011;SDS011;1009;51.436;6.972;2023-02-01T03:17:03;15.27;;;5.43;;
2011;SDS011;1009;51.436;6.972;2023-02-01T03:19:35;15.00;;;4.90;;
2011;SDS011;1009;51.436;6.972;2023-02-01T03:22:10;16.40;;;6.40;;
2011;SDS011;1009;51.436;6.972;2023-02-01T03:24:41;16.43;;;5.13;;
2011;SDS011;1009;51.436;6.972;2023-02-01T03:27:11;14.63;;;5.40;;
2011;SDS011;1009;51.436;6.972;2023-02-01T03:29:44;16.33;;;5.63;;
2011;SDS011;1009;51.436;6.972;2023-02-01T03:32:15;26.67;;;6.80;;
2011;SDS011;1009;51.436;6.972;2023-02-01T03:34:43;15.83;;;6.23;;
2011;SDS011;1009;51.436;6.972;2023-02-01T03:37:12;18.80;;;6.03;;
2011;SDS011;1009;51.436;6.972;2023-02-01T03:39:43;18.03;;;5.20;;
2011;SDS011;1009;51.436;6.972;2023-02-01T03:42:14;19.97;;;5.67;;
2011;SDS011;1009;51.436;6.972;2023-02-01T03:44:47;12.80;;;5.40;;
2011;SDS011;1009;51.436;6.972;2023-02-01T03:47:18;16.53;;;5.80;;
2011;SDS011;1009;51.436;6.972;2023-02-01T03:49:49;18.30;;;5.37;;
2011;SDS011;1009;51.436;6.972;2023-02-01T03:52:20;15.40;;;5.10;;
2011;SDS011;1009;51.436;6.972;2023-02-01T03:54:49;19.70;;;5.10;;
2011;SDS011;1009;51.436;6.972;2023-02-01T03:57:18;13.50;;;4.70;;
2011;SDS011;1009;51.436;6.972;2023-02-01T03:59:49;20.87;;;6.43;;
2011;SDS011;1009;51.436;6.972;2023-02-01T04:02:16;15.67;;;5.80;;
2011;SDS011;1009;51.436;6.972;2023-02-01T04:04:43;16.50;;;5.93;;
2011;SDS011;1009;51.436;6.972;2023-02-01T04:07:10;14.27;;;5.30;;
2011;SDS011;1009;51.436;6.972;2023-02-01T04:09:38;21.50;;;6.43;;
2011;SDS011;1009;51.436;6.972;2023-02-01T04:12:05;14.70;;;5.20;;
2011;SDS011;1009;51.436;6.972;2023-02-01T04:14:32;13.33;;;6.40;;
2011;SDS011;1009;51.436;6.972;2023-02-01T04:17:02;14.67;;;6.20;;
2011;SDS011;1009;51.436;6.972;2023-02-01T04:19:28;18.73;;;6.07;;
2011;SDS011;1009;51.436;6.972;2023-02-01T04:21:55;24.63;;;7.87;;
2011;SDS011;1009;51.436;6.972;2023-02-01T04:24:22;24.67;;;7.40;;
2011;SDS011;1009;51.436;6.972;2023-02-01T04:26:50;17.67;;;5.63;;
2011;SDS011;1009;51.436;6.972;2023-02-01T04:29:16;15.80;;;5.37;;
2011;SDS011;1009;51.436;6.972;2023-02-01T04:31:43;21.00;;;5.93;;
2011;SDS011;1009;51.436;6.972;2023-02-01T04:34:11;25.77;;;7.00;;
2011;SDS011;1009;51.436;6.972;2023-02-01T04:36:37;21.80;;;5.83;;
2011;SDS011;1009;51.436;6.972;2023-02-01T04:39:04;20.23;;;6.77;;
2011;SDS011;1009;51.436;6.972;2023-02-01T04:41:31;17.93;;;6.00;;
2011;SDS011;1009;51.436;6.972;2023-02-01T04:43:59;18.40;;;6.30;;
2011;SDS011;1009;51.436;6.972;2023-02-01T04:46:31;19.70;;;5.53;;
2011;SDS011;1009;51.436;6.972;2023-02-01T04:48:58;19.10;;;6.97;;
2011;SDS011;1009;51.436;6.972;2023-02-01T04:51:25;14.20;;;5.33;;
2011;SDS011;1009;51.436;6.972;2023-02-01T04:54:00;19.90;;;5.90;;
2011;SDS011;1009;51.436;6.972;2023-02-01T04:56:27;23.50;;;7.10;;
2011;SDS011;1009;51.436;6.972;2023-02-01T04:58:53;19.80;;;6.40;;
2011;SDS011;1009;51.436;6.972;2023-02-01T05:01:22;19.70;;;8.53;;
2011;SDS011;1009;51.436;6.972;2023-02-01T05:03:49;24.47;;;6.17;;
2011;SDS011;1009;51.436;6.972;2023-02-01T05:06:16;18.50;;;6.60;;
2011;SDS011;1009;51.436;6.972;2023-02-01T05:08:43;20.73;;;6.40;;
2011;SDS011;1009;51.436;6.972;2023-02-01T05:11:10;18.63;;;6.93;;
2011;SDS011;1009;51.436;6.972;2023-02-01T05:13:57;24.13;;;6.20;;
2011;SDS011;1009;51.436;6.972;2023-02-01T05:16:25;18.00;;;6.63;;
2011;SDS011;1009;51.436;6.972;2023-02-01T05:18:52;27.27;;;7.00;;
2011;SDS011;1009;51.436;6.972;2023-02-01T05:21:19;19.13;;;6.27;;
2011;SDS011;1009;51.436;6.972;2023-02-01T05:23:49;34.90;;;6.97;;
2011;SDS011;1009;51.436;6.972;2023-02-01T05:26:33;22.30;;;6.27;;
2011;SDS011;1009;51.436;6.972;2023-02-01T05:28:59;18.30;;;6.57;;
2011;SDS011;1009;51.436;6.972;2023-02-01T05:31:28;17.87;;;5.90;;
2011;SDS011;1009;51.436;6.972;2023-02-01T05:33:54;23.03;;;7.00;;
2011;SDS011;1009;51.436;6.972;2023-02-01T05:36:21;18.47;;;5.10;;
2011;SDS011;1009;51.436;6.972;2023-02-01T05:38:48;21.70;;;5.43;;
2011;SDS011;1009;51.436;6.972;2023-02-01T05:41:15;20.03;;;6.00;;
2011;SDS011;1009;51.436;6.972;2023-02-01T05:43:42;25.50;;;6.20;;
2011;SDS011;1009;51.436;6.972;2023-02-01T05:46:08;27.50;;;7.00;;
2011;SDS011;1009;51.436;6.972;2023-02-01T05:48:39;17.77;;;6.00;;
2011;SDS011;1009;51.436;6.972;2023-02-01T05:51:05;19.03;;;5.40;;
2011;SDS011;1009;51.436;6.972;2023-02-01T05:53:32;24.47;;;6.27;;
2011;SDS011;1009;51.436;6.972;2023-02-01T05:56:05;22.77;;;6.37;;
2011;SDS011;1009;51.436;6.972;2023-02-01T05:58:32;24.67;;;7.70;;
2011;SDS011;1009;51.436;6.972;2023-02-01T06:01:02;19.60;;;6.20;;
2011;SDS011;1009;51.436;6.972;2023-02-01T06:03:29;19.07;;;6.57;;
2011;SDS011;1009;51.436;6.972;2023-02-01T06:06:01;21.83;;;5.97;;
2011;SDS011;1009;51.436;6.972;2023-02-01T06:08:27;31.53;;;5.83;;
2011;SDS011;1009;51.436;6.972;2023-02-01T06:10:57;20.87;;;7.10;;
2011;SDS011;1009;51.436;6.972;2023-02-01T06:13:24;24.83;;;6.83;;
2011;SDS011;1009;51.436;6.972;2023-02-01T06:15:51;33.33;;;8.27;;
2011;SDS011;1009;51.436;6.972;2023-02-01T06:18:18;15.47;;;6.17;;
2011;SDS011;1009;51.436;6.972;2023-02-01T06:20:45;25.13;;;6.97;;
2011;SDS011;1009;51.436;6.972;2023-02-01T06:23:18;25.73;;;7.53;;
2011;SDS011;1009;51.436;6.972;2023-02-01T06:25:49;27.57;;;7.20;;
2011;SDS011;1009;51.436;6.972;2023-02-01T06:28:16;20.73;;;5.70;;
2011;SDS011;1009;51.436;6.972;2023-02-01T06:30:43;23.60;;;6.30;;
2011;SDS011;1009;51.436;6.972;2023-02-01T06:33:11;24.03;;;7.30;;
2011;SDS011;1009;51.436;6.972;2023-02-01T06:35:39;21.13;;;7.67;;
2011;SDS011;1009;51.436;6.972;2023-02-01T06:38:07;22.10;;;5.87;;
2011;SDS011;1009;51.436;6.972;2023-02-01T06:40:35;20.07;;;5.97;;
2011;SDS011;1009;51.436;6.972;2023-02-01T06:43:02;21.83;;;7.83;;
2011;SDS011;1009;51.436;6.972;2023-02-01T06:45:29;25.10;;;6.57;;
2011;SDS011;1009;51.436;6.972;2023-02-01T06:47:56;18.83;;;6.37;;
2011;SDS011;1009;51.436;6.972;2023-02-01T06:50:27;24.77;;;7.43;;
2011;SDS011;1009;51.436;6.972;2023-02-01T06:52:54;16.30;;;5.90;;
2011;SDS011;1009;51.436;6.972;2023-02-01T06:55:21;24.13;;;5.80;;
2011;SDS011;1009;51.436;6.972;2023-02-01T06:57:49;18.50;;;5.50;;
2011;SDS011;1009;51.436;6.972;2023-02-01T07:00:19;22.90;;;5.70;;
2011;SDS011;1009;51.436;6.972;2023-02-01T07:02:46;19.90;;;6.10;;
2011;SDS011;1009;51.436;6.972;2023-02-01T07:05:13;22.33;;;5.57;;
2011;SDS011;1009;51.436;6.972;2023-02-01T07:07:40;22.33;;;6.70;;
2011;SDS011;1009;51.436;6.972;2023-02-01T07:10:07;20.63;;;5.80;;
2011;SDS011;1009;51.436;6.972;2023-02-01T07:12:35;20.03;;;6.00;;
2011;SDS011;1009;51.436;6.972;2023-02-01T07:15:03;30.63;;;6.13;;
2011;SDS011;1009;51.436;6.972;2023-02-01T07:17:31;25.80;;;5.70;;
2011;SDS011;1009;51.436;6.972;2023-02-01T07:19:58;22.80;;;6.73;;
2011;SDS011;1009;51.436;6.972;2023-02-01T07:22:26;23.40;;;6.50;;
2011;SDS011;1009;51.436;6.972;2023-02-01T07:24:53;25.53;;;6.50;;
2011;SDS011;1009;51.436;6.972;2023-02-01T07:27:19;26.90;;;6.87;;
2011;SDS011;1009;51.436;6.972;2023-02-01T07:29:49;16.13;;;5.97;;
2011;SDS011;1009;51.436;6.972;2023-02-01T07:32:20;20.40;;;5.80;;
2011;SDS011;1009;51.436;6.972;2023-02-01T07:34:47;23.33;;;5.90;;
2011;SDS011;1009;51.436;6.972;2023-02-01T07:37:14;22.20;;;6.83;;
2011;SDS011;1009;51.436;6.972;2023-02-01T07:39:40;18.03;;;6.63;;
2011;SDS011;1009;51.436;6.972;2023-02-01T07:42:07;17.37;;;5.67;;
2011;SDS011;1009;51.436;6.972;2023-02-01T07:44:34;18.20;;;5.30;;
2011;SDS011;1009;51.436;6.972;2023-02-01T07:47:00;17.20;;;6.90;;
2011;SDS011;1009;51.436;6.972;2023-02-01T07:49:28;20.63;;;6.10;;
2011;SDS011;1009;51.436;6.972;2023-02-01T07:51:56;21.13;;;5.50;;
2011;SDS011;1009;51.436;6.972;2023-02-01T07:54:22;19.73;;;7.50;;
2011;SDS011;1009;51.436;6.972;2023-02-01T07:56:49;18.67;;;6.93;;
2011;SDS011;1009;51.436;6.972;2023-02-01T07:59:16;16.17;;;6.67;;
2011;SDS011;1009;51.436;6.972;2023-02-01T08:01:43;19.73;;;6.40;;
2011;SDS011;1009;51.436;6.972;2023-02-01T08:04:10;17.63;;;6.40;;
2011;SDS011;1009;51.436;6.972;2023-02-01T08:06:39;22.07;;;6.63;;
2011;SDS011;1009;51.436;6.972;2023-02-01T08:09:07;22.37;;;6.97;;
2011;SDS011;1009;51.436;6.972;2023-02-01T08:11:35;18.40;;;6.53;;
2011;SDS011;1009;51.436;6.972;2023-02-01T08:14:02;29.30;;;8.70;;
2011;SDS011;1009;51.436;6.972;2023-02-01T08:16:30;23.23;;;7.17;;
2011;SDS011;1009;51.436;6.972;2023-02-01T08:18:58;21.57;;;7.43;;
2011;SDS011;1009;51.436;6.972;2023-02-01T08:21:25;19.90;;;6.60;;
2011;SDS011;1009;51.436;6.972;2023-02-01T08:24:02;32.50;;;8.50;;
2011;SDS011;1009;51.436;6.972;2023-02-01T08:26:30;26.77;;;6.37;;
2011;SDS011;1009;51.436;6.972;2023-02-01T08:28:57;18.70;;;6.53;;
2011;SDS011;1009;51.436;6.972;2023-02-01T08:31:26;20.33;;;6.30;;
2011;SDS011;1009;51.436;6.972;2023-02-01T08:33:55;28.63;;;7.43;;
2011;SDS011;1009;51.436;6.972;2023-02-01T08:36:23;23.60;;;7.60;;
2011;SDS011;1009;51.436;6.972;2023-02-01T08:38:51;18.93;;;7.03;;
2011;SDS011;1009;51.436;6.972;2023-02-01T08:41:20;22.43;;;6.77;;
2011;SDS011;1009;51.436;6.972;2023-02-01T08:43:47;21.87;;;6.80;;
2011;SDS011;1009;51.436;6.972;2023-02-01T08:46:14;21.87;;;7.37;;
2011;SDS011;1009;51.436;6.972;2023-02-01T08:48:41;21.23;;;9.70;;
2011;SDS011;1009;51.436;6.972;2023-02-01T08:51:09;19.30;;;5.90;;
2011;SDS011;1009;51.436;6.972;2023-02-01T08:53:37;25.87;;;6.87;;
2011;SDS011;1009;51.436;6.972;2023-02-01T08:56:06;19.83;;;6.20;;
2011;SDS011;1009;51.436;6.972;2023-02-01T08:58:35;21.70;;;6.57;;
2011;SDS011;1009;51.436;6.972;2023-02-01T09:01:02;25.60;;;7.57;;
2011;SDS011;1009;51.436;6.972;2023-02-01T09:03:29;22.27;;;6.50;;
2011;SDS011;1009;51.436;6.972;2023-02-01T09:05:59;28.50;;;7.07;;
2011;SDS011;1009;51.436;6.972;2023-02-01T09:08:26;23.13;;;6.50;;
2011;SDS011;1009;51.436;6.972;2023-02-01T09:10:53;15.93;;;5.90;;
2011;SDS011;1009;51.436;6.972;2023-02-01T09:13:23;23.13;;;6.97;;
2011;SDS011;1009;51.436;6.972;2023-02-01T09:15:52;25.03;;;7.53;;
2011;SDS011;1009;51.436;6.972;2023-02-01T09:18:18;20.13;;;6.03;;
2011;SDS011;1009;51.436;6.972;2023-02-01T09:20:45;20.67;;;7.27;;
2011;SDS011;1009;51.436;6.972;2023-02-01T09:23:12;17.10;;;5.87;;
2011;SDS011;1009;51.436;6.972;2023-02-01T09:25:39;25.30;;;8.10;;
2011;SDS011;1009;51.436;6.972;2023-02-01T09:28:06;21.27;;;6.77;;
2011;SDS011;1009;51.436;6.972;2023-02-01T09:30:34;18.10;;;6.00;;
2011;SDS011;1009;51.436;6.972;2023-02-01T09:33:02;21.27;;;7.17;;
2011;SDS011;1009;51.436;6.972;2023-02-01T09:35:30;18.50;;;6.60;;
2011;SDS011;1009;51.436;6.972;2023-02-01T09:37:56;22.37;;;6.90;;
2011;SDS011;1009;51.436;6.972;2023-02-01T09:40:23;27.13;;;6.60;;
2011;SDS011;1009;51.436;6.972;2023-02-01T09:42:55;24.63;;;7.60;;
2011;SDS011;1009;51.436;6.972;2023-02-01T09:45:37;23.57;;;8.23;;
2011;SDS011;1009;51.436;6.972;2023-02-01T09:48:12;15.87;;;7.17;;
2011;SDS011;1009;51.436;6.972;2023-02-01T09:50:43;20.90;;;7.03;;
2011;SDS011;1009;51.436;6.972;2023-02-01T09:53:15;20.53;;;7.70;;
2011;SDS011;1009;51.436;6.972;2023-02-01T09:55:47;20.23;;;7.13;;
2011;SDS011;1009;51.436;6.972;2023-02-01T09:58:16;19.27;;;7.17;;
2011;SDS011;1009;51.436;6.972;2023-02-01T10:00:50;19.20;;;7.27;;
2011;SDS011;1009;51.436;6.972;2023-02-01T10:03:21;15.23;;;6.33;;
2011;SDS011;1009;51.436;6.972;2023-02-01T10:08:59;20.70;;;6.90;;
2011;SDS011;1009;51.436;6.972;2023-02-01T10:11:53;20.00;;;6.83;;
2011;SDS011;1009;51.436;6.972;2023-02-01T10:14:36;18.23;;;6.47;;
2011;SDS011;1009;51.436;6.972;2023-02-01T10:17:12;21.27;;;7.90;;
2011;SDS011;1009;51.436;6.972;2023-02-01T10:19:49;24.47;;;7.97;;
2011;SDS011;1009;51.436;6.972;2023-02-01T10:22:31;21.00;;;7.07;;
2011;SDS011;1009;51.436;6.972;2023-02-01T10:25:06;20.67;;;6.43;;
2011;SDS011;1009;51.436;6.972;2023-02-01T10:27:39;19.83;;;5.80;;
2011;SDS011;1009;51.436;6.972;2023-02-01T10:30:12;18.63;;;7.63;;
2011;SDS011;1009;51.436;6.972;2023-02-01T10:32:43;21.37;;;6.43;;
2011;SDS011;1009;51.436;6.972;2023-02-01T10:35:12;20.20;;;6.30;;
2011;SDS011;1009;51.436;6.972;2023-02-01T10:37:42;18.43;;;6.93;;
2011;SDS011;1009;51.436;6.972;2023-02-01T10:40:12;15.40;;;6.10;;
2011;SDS011;1009;51.436;6.972;2023-02-01T10:42:44;20.03;;;6.60;;
2011;SDS011;1009;51.436;6.972;2023-02-01T10:45:13;15.47;;;5.63;;
2011;SDS011;1009;51.436;6.972;2023-02-01T10:47:43;14.57;;;6.20;;
2011;SDS011;1009;51.436;6.972;2023-02-01T10:50:15;21.03;;;7.30;;
2011;SDS011;1009;51.436;6.972;2023-02-01T10:52:46;17.77;;;6.50;;
2011;SDS011;1009;51.436;6.972;2023-02-01T10:55:27;28.37;;;8.17;;
2011;SDS011;1009;51.436;6.972;2023-02-01T10:58:06;20.37;;;6.50;;
2011;SDS011;1009;51.436;6.972;2023-02-01T11:00:45;17.23;;;6.27;;
2011;SDS011;1009;51.436;6.972;2023-02-01T11:06:13;17.40;;;6.23;;
2011;SDS011;1009;51.436;6.972;2023-02-01T11:08:48;15.47;;;5.27;;
2011;SDS011;1009;51.436;6.972;2023-02-01T11:11:16;17.90;;;6.20;;
2011;SDS011;1009;51.436;6.972;2023-02-01T11:13:43;16.40;;;5.30;;
2011;SDS011;1009;51.436;6.972;2023-02-01T11:16:13;20.13;;;7.00;;
2011;SDS011;1009;51.436;6.972;2023-02-01T11:18:41;24.70;;;6.40;;
2011;SDS011;1009;51.436;6.972;2023-02-01T11:21:09;21.00;;;5.90;;
2011;SDS011;1009;51.436;6.972;2023-02-01T11:23:42;19.43;;;5.80;;
2011;SDS011;1009;51.436;6.972;2023-02-01T11:26:11;18.17;;;5.80;;
2011;SDS011;1009;51.436;6.972;2023-02-01T11:28:41;17.87;;;7.47;;
2011;SDS011;1009;51.436;6.972;2023-02-01T11:31:17;14.53;;;5.70;;
2011;SDS011;1009;51.436;6.972;2023-02-01T11:33:47;20.23;;;6.20;;
2011;SDS011;1009;51.436;6.972;2023-02-01T11:36:20;19.23;;;7.13;;
2011;SDS011;1009;51.436;6.972;2023-02-01T11:38:53;21.83;;;6.27;;
2011;SDS011;1009;51.436;6.972;2023-02-01T11:41:33;14.00;;;6.27;;
2011;SDS011;1009;51.436;6.972;2023-02-01T11:44:01;23.57;;;6.47;;
2011;SDS011;1009;51.436;6.972;2023-02-01T11:46:41;22.00;;;6.00;;
2011;SDS011;1009;51.436;6.972;2023-02-01T11:49:14;18.83;;;5.93;;
2011;SDS011;1009;51.436;6.972;2023-02-01T11:51:49;21.87;;;5.47;;
2011;SDS011;1009;51.436;6.972;2023-02-01T11:54:28;17.10;;;6.30;;
2011;SDS011;1009;51.436;6.972;2023-02-01T11:57:11;22.50;;;7.07;;
2011;SDS011;1009;51.436;6.972;2023-02-01T11:59:56;20.90;;;6.40;;
2011;SDS011;1009;51.436;6.972;2023-02-01T12:02:39;19.60;;;6.57;;
2011;SDS011;1009;51.436;6.972;2023-02-01T12:05:20;17.30;;;6.70;;
2011;SDS011;1009;51.436;6.972;2023-02-01T12:08:07;18.60;;;7.47;;
2011;SDS011;1009;51.436;6.972;2023-02-01T12:10:53;18.93;;;7.13;;
2011;SDS011;1009;51.436;6.972;2023-02-01T12:13:35;21.43;;;7.27;;
2011;SDS011;1009;51.436;6.972;2023-02-01T12:16:15;22.17;;;6.70;;
2011;SDS011;1009;51.436;6.972;2023-02-01T12:18:52;22.93;;;6.87;;
2011;SDS011;1009;51.436;6.972;2023-02-01T12:21:32;19.10;;;7.63;;
2011;SDS011;1009;51.436;6.972;2023-02-01T12:24:16;18.27;;;7.00;;
2011;SDS011;1009;51.436;6.972;2023-02-01T12:27:02;15.97;;;6.80;;
2011;SDS011;1009;51.436;6.972;2023-02-01T12:29:47;17.37;;;6.93;;
2011;SDS011;1009;51.436;6.972;2023-02-01T12:32:37;17.47;;;6.47;;
2011;SDS011;1009;51.436;6.972;2023-02-01T12:35:20;20.37;;;6.83;;
2011;SDS011;1009;51.436;6.972;2023-02-01T12:38:02;13.70;;;5.53;;
2011;SDS011;1009;51.436;6.972;2023-02-01T12:40:45;24.20;;;7.70;;
2011;SDS011;1009;51.436;6.972;2023-02-01T12:43:22;21.90;;;5.60;;
2011;SDS011;1009;51.436;6.972;2023-02-01T12:46:02;15.73;;;4.90;;
2011;SDS011;1009;51.436;6.972;2023-02-01T12:48:33;16.30;;;6.70;;
2011;SDS011;1009;51.436;6.972;2023-02-01T12:51:04;15.83;;;4.70;;
2011;SDS011;1009;51.436;6.972;2023-02-01T12:53:41;16.23;;;5.13;;
2011;SDS011;1009;51.436;6.972;2023-02-01T12:56:12;21.77;;;5.40;;
2011;SDS011;1009;51.436;6.972;2023-02-01T12:58:47;16.20;;;5.20;;
2011;SDS011;1009;51.436;6.972;2023-02-01T13:01:18;20.90;;;4.63;;
2011;SDS011;1009;51.436;6.972;2023-02-01T13:03:53;21.00;;;5.40;;
2011;SDS011;1009;51.436;6.972;2023-02-01T13:06:31;20.10;;;4.30;;
2011;SDS011;1009;51.436;6.972;2023-02-01T13:09:04;14.50;;;4.70;;
2011;SDS011;1009;51.436;6.972;2023-02-01T13:11:39;19.27;;;5.40;;
2011;SDS011;1009;51.436;6.972;2023-02-01T13:14:13;19.93;;;4.27;;
2011;SDS011;1009;51.436;6.972;2023-02-01T13:16:49;14.27;;;5.03;;
2011;SDS011;1009;51.436;6.972;2023-02-01T13:19:19;11.63;;;4.67;;
2011;SDS011;1009;51.436;6.972;2023-02-01T13:21:51;16.57;;;5.00;;
2011;SDS011;1009;51.436;6.972;2023-02-01T13:24:31;10.70;;;4.70;;
2011;SDS011;1009;51.436;6.972;2023-02-01T13:27:02;14.27;;;4.53;;
2011;SDS011;1009;51.436;6.972;2023-02-01T13:29:30;19.57;;;4.50;;
2011;SDS011;1009;51.436;6.972;2023-02-01T13:32:03;25.07;;;5.73;;
2011;SDS011;1009;51.436;6.972;2023-02-01T13:35:03;12.33;;;4.80;;
2011;SDS011;1009;51.436;6.972;2023-02-01T13:37:54;15.00;;;4.17;;
2011;SDS011;1009;51.436;6.972;2023-02-01T13:40:38;19.43;;;4.87;;
2011;SDS011;1009;51.436;6.972;2023-02-01T13:43:10;14.90;;;4.30;;
2011;SDS011;1009;51.436;6.972;2023-02-01T13:45:44;10.83;;;4.30;;
2011;SDS011;1009;51.436;6.972;2023-02-01T13:48:19;22.03;;;3.70;;
2011;SDS011;1009;51.436;6.972;2023-02-01T13:50:50;11.60;;;4.67;;
2011;SDS011;1009;51.436;6.972;2023-02-01T13:53:22;14.43;;;3.07;;
2011;SDS011;1009;51.436;6.972;2023-02-01T13:55:55;11.87;;;3.37;;
2011;SDS011;1009;51.436;6.972;2023-02-01T13:58:29;19.90;;;4.70;;
2011;SDS011;1009;51.436;6.972;2023-02-01T14:04:01;19.60;;;4.30;;
2011;SDS011;1009;51.436;6.972;2023-02-01T14:06:34;16.37;;;4.50;;
2011;SDS011;1009;51.436;6.972;2023-02-01T14:09:17;19.37;;;4.03;;
2011;SDS011;1009;51.436;6.972;2023-02-01T14:11:46;20.37;;;4.50;;
2011;SDS011;1009;51.436;6.972;2023-02-01T14:26:01;13.07;;;4.00;;
2011;SDS011;1009;51.436;6.972;2023-02-01T14:28:41;25.43;;;6.03;;
2011;SDS011;1009;51.436;6.972;2023-02-01T14:31:15;16.20;;;4.40;;
2011;SDS011;1009;51.436;6.972;2023-02-01T14:33:59;16.87;;;4.23;;
2011;SDS011;1009;51.436;6.972;2023-02-01T14:36:38;19.70;;;6.23;;
2011;SDS011;1009;51.436;6.972;2023-02-01T14:39:18;9.73;;;3.10;;
2011;SDS011;1009;51.436;6.972;2023-02-01T14:41:48;16.07;;;4.97;;
2011;SDS011;1009;51.436;6.972;2023-02-01T14:44:28;15.90;;;4.30;;
2011;SDS011;1009;51.436;6.972;2023-02-01T14:49:58;20.57;;;5.10;;
2011;SDS011;1009;51.436;6.972;2023-02-01T14:52:45;10.70;;;4.13;;
2011;SDS011;1009;51.436;6.972;2023-02-01T14:55:15;12.60;;;4.37;;
2011;SDS011;1009;51.436;6.972;2023-02-01T14:57:45;18.10;;;5.00;;
2011;SDS011;1009;51.436;6.972;2023-02-01T15:00:17;13.97;;;4.27;;
2011;SDS011;1009;51.436;6.972;2023-02-01T15:02:47;14.50;;;4.07;;
2011;SDS011;1009;51.436;6.972;2023-02-01T15:08:05;10.20;;;3.90;;
2011;SDS011;1009;51.436;6.972;2023-02-01T15:10:48;8.00;;;3.10;;
2011;SDS011;1009;51.436;6.972;2023-02-01T15:13:18;14.83;;;5.23;;
2011;SDS011;1009;51.436;6.972;2023-02-01T15:16:00;15.93;;;4.23;;
2011;SDS011;1009;51.436;6.972;2023-02-01T15:18:28;11.97;;;3.53;;
2011;SDS011;1009;51.436;6.972;2023-02-01T15:21:00;14.90;;;4.90;;
2011;SDS011;1009;51.436;6.972;2023-02-01T15:23:28;13.33;;;4.27;;
2011;SDS011;1009;51.436;6.972;2023-02-01T15:25:59;13.40;;;4.27;;
2011;SDS011;1009;51.436;6.972;2023-02-01T15:28:28;14.03;;;3.70;;
2011;SDS011;1009;51.436;6.972;2023-02-01T15:30:59;10.50;;;2.83;;
2011;SDS011;1009;51.436;6.972;2023-02-01T15:33:27;17.00;;;5.03;;
2011;SDS011;1009;51.436;6.972;2023-02-01T15:36:06;19.57;;;3.60;;
2011;SDS011;1009;51.436;6.972;2023-02-01T15:38:38;17.00;;;4.10;;
2011;SDS011;1009;51.436;6.972;2023-02-01T15:41:07;16.93;;;3.87;;
2011;SDS011;1009;51.436;6.972;2023-02-01T15:43:39;27.57;;;4.43;;
2011;SDS011;1009;51.436;6.972;2023-02-01T15:46:08;13.33;;;3.70;;
2011;SDS011;1009;51.436;6.972;2023-02-01T15:48:38;14.10;;;3.90;;
2011;SDS011;1009;51.436;6.972;2023-02-01T15:51:17;14.70;;;3.63;;
2011;SDS011;1009;51.436;6.972;2023-02-01T15:53:47;16.77;;;4.53;;
2011;SDS011;1009;51.436;6.972;2023-02-01T15:56:21;13.00;;;4.17;;